Lexington (LEX/KLEX)

Map

Destinations

Information

Location
Lexington, KY
Local Time
21:00 / 9:00 pm
GMT Time
01:00 / 1:00 am
Gates
B2
No FAA reported delays
METAR KLEX 240054Z 34004KT 10SM CLR 22/11 A2999 RMK AO2 SLP149 T02170111
TAF KLEX 232320Z 2400/2424 36003KT P6SM FEW150 FM241500 03006KT P6SM FEW150